createdAt,value
2019-03-30T00:05:09.001Z,12.07
2019-03-30T00:07:40.227Z,10.70
2019-03-30T00:10:19.984Z,12.10
2019-03-30T00:12:52.470Z,12.00
2019-03-30T00:15:24.368Z,11.93
2019-03-30T00:18:16.187Z,12.30
2019-03-30T00:20:49.894Z,12.33
2019-03-30T00:23:22.341Z,11.97
2019-03-30T00:25:55.849Z,12.20
2019-03-30T00:28:27.260Z,12.13
2019-03-30T00:30:58.813Z,12.30
2019-03-30T00:33:52.966Z,11.97
2019-03-30T00:36:24.673Z,11.57
2019-03-30T00:38:56.006Z,11.87
2019-03-30T00:41:27.467Z,12.43
2019-03-30T00:43:58.594Z,12.27
2019-03-30T00:46:29.839Z,12.37
2019-03-30T00:49:01.381Z,12.53
2019-03-30T00:51:33.215Z,11.73
2019-03-30T00:54:05.000Z,12.63
2019-03-30T00:56:36.677Z,11.90
2019-03-30T00:59:07.956Z,12.70
2019-03-30T01:01:39.155Z,12.33
2019-03-30T01:04:11.696Z,12.20
2019-03-30T01:06:43.095Z,12.77
2019-03-30T01:09:14.422Z,12.80
2019-03-30T01:11:45.606Z,13.63
2019-03-30T01:14:16.825Z,12.37
2019-03-30T01:16:49.337Z,12.67
2019-03-30T01:19:22.060Z,12.17
2019-03-30T01:21:56.081Z,11.97
2019-03-30T01:24:26.547Z,13.10
2019-03-30T01:26:58.650Z,12.67
2019-03-30T01:29:29.803Z,12.63
2019-03-30T01:32:02.131Z,12.90
2019-03-30T01:34:33.999Z,12.83
2019-03-30T01:37:05.334Z,13.63
2019-03-30T01:39:37.480Z,12.80
2019-03-30T01:42:08.968Z,12.50
2019-03-30T01:44:42.543Z,12.63
2019-03-30T01:47:14.155Z,12.57
2019-03-30T01:49:45.731Z,13.70
2019-03-30T01:52:18.067Z,13.03
2019-03-30T01:54:49.821Z,13.43
2019-03-30T01:57:20.868Z,13.43
2019-03-30T01:59:52.172Z,13.23
2019-03-30T02:02:23.202Z,13.80
2019-03-30T02:04:54.278Z,12.77
2019-03-30T02:07:25.344Z,12.67
2019-03-30T02:09:58.265Z,12.77
2019-03-30T02:12:29.349Z,13.57
2019-03-30T02:15:00.379Z,13.43
2019-03-30T02:17:31.872Z,13.10
2019-03-30T02:20:03.135Z,13.20
2019-03-30T02:22:34.124Z,12.87
2019-03-30T02:25:05.444Z,13.63
2019-03-30T02:27:37.160Z,13.40
2019-03-30T02:30:09.268Z,12.70
2019-03-30T02:32:41.363Z,13.37
2019-03-30T02:35:13.502Z,13.60
2019-03-30T02:37:45.412Z,13.77
2019-03-30T02:40:16.599Z,12.67
2019-03-30T02:42:50.761Z,12.40
2019-03-30T02:45:22.014Z,12.53
2019-03-30T02:47:53.313Z,13.37
2019-03-30T02:50:24.634Z,14.77
2019-03-30T02:52:55.723Z,12.97
2019-03-30T02:55:27.200Z,13.13
2019-03-30T02:57:58.815Z,14.00
2019-03-30T03:00:30.978Z,12.53
2019-03-30T03:03:04.478Z,12.27
2019-03-30T03:05:36.118Z,16.83
2019-03-30T03:08:07.443Z,13.87
2019-03-30T03:10:38.461Z,14.33
2019-03-30T03:13:11.228Z,14.30
2019-03-30T03:15:42.195Z,14.17
2019-03-30T03:18:13.527Z,13.97
2019-03-30T03:20:44.690Z,13.80
2019-03-30T03:23:15.749Z,16.10
2019-03-30T03:25:47.159Z,14.30
2019-03-30T03:28:18.233Z,14.20
2019-03-30T03:30:49.247Z,14.30
2019-03-30T03:33:20.223Z,15.73
2019-03-30T03:35:52.219Z,13.83
2019-03-30T03:38:23.426Z,14.87
2019-03-30T03:40:54.967Z,14.00
2019-03-30T03:43:26.105Z,14.13
2019-03-30T03:45:57.314Z,15.17
2019-03-30T03:48:28.688Z,14.67
2019-03-30T03:51:03.130Z,14.80
2019-03-30T03:53:36.012Z,15.00
2019-03-30T03:56:07.462Z,13.93
2019-03-30T03:58:40.567Z,15.47
2019-03-30T04:01:13.213Z,14.73
2019-03-30T04:03:46.733Z,15.23
2019-03-30T04:06:22.098Z,15.30
2019-03-30T04:08:57.898Z,15.10
2019-03-30T04:11:31.634Z,15.37
2019-03-30T04:14:04.349Z,14.57
2019-03-30T04:16:36.458Z,14.23
2019-03-30T04:19:12.849Z,15.27
2019-03-30T04:21:50.736Z,14.77
2019-03-30T04:24:22.789Z,14.87
2019-03-30T04:26:59.092Z,15.40
2019-03-30T04:29:45.481Z,15.33
2019-03-30T04:32:16.688Z,16.00
2019-03-30T04:34:53.757Z,16.47
2019-03-30T04:37:24.870Z,15.13
2019-03-30T04:40:01.851Z,16.33
2019-03-30T04:42:43.495Z,16.43
2019-03-30T04:48:12.904Z,15.67
2019-03-30T04:50:49.095Z,14.60
2019-03-30T04:53:36.985Z,15.67
2019-03-30T04:56:10.322Z,16.53
2019-03-30T04:58:47.046Z,16.40
2019-03-30T05:01:19.828Z,16.37
2019-03-30T05:03:50.934Z,16.30
2019-03-30T05:06:29.657Z,15.87
2019-03-30T05:09:10.540Z,14.70
2019-03-30T05:11:46.822Z,16.57
2019-03-30T05:14:25.558Z,16.00
2019-03-30T05:16:56.777Z,15.17
2019-03-30T05:19:28.068Z,14.77
2019-03-30T05:22:11.499Z,15.50
2019-03-30T05:24:31.924Z,16.80
2019-03-30T05:27:08.167Z,15.10
2019-03-30T05:29:39.300Z,15.50
2019-03-30T05:32:10.315Z,15.70
2019-03-30T05:34:55.082Z,16.50
2019-03-30T05:37:33.851Z,15.40
2019-03-30T05:40:09.101Z,15.50
2019-03-30T05:42:46.613Z,15.33
2019-03-30T05:45:22.615Z,15.83
2019-03-30T05:48:00.138Z,15.93
2019-03-30T05:50:37.253Z,16.70
2019-03-30T05:53:10.944Z,15.67
2019-03-30T05:55:53.682Z,15.50
2019-03-30T05:58:27.341Z,16.90
2019-03-30T06:01:11.003Z,15.10
2019-03-30T06:03:57.713Z,16.13
2019-03-30T06:06:58.271Z,15.37
2019-03-30T06:10:07.136Z,15.40
2019-03-30T06:13:21.593Z,16.10
2019-03-30T06:16:09.746Z,16.83
2019-03-30T06:18:40.979Z,15.27
2019-03-30T06:21:23.219Z,15.93
2019-03-30T06:23:59.619Z,16.03
2019-03-30T06:26:49.228Z,15.67
2019-03-30T06:29:37.429Z,16.17
2019-03-30T06:32:10.440Z,16.30
2019-03-30T06:34:59.076Z,15.30
2019-03-30T06:37:30.572Z,14.50
2019-03-30T06:40:01.568Z,17.33
2019-03-30T06:42:34.016Z,15.80
2019-03-30T06:45:05.464Z,15.53
2019-03-30T06:47:36.794Z,13.50
2019-03-30T06:50:09.836Z,15.33
2019-03-30T06:52:58.634Z,15.60
2019-03-30T06:55:39.540Z,14.77
2019-03-30T06:58:25.516Z,14.80
2019-03-30T07:01:07.185Z,15.63
2019-03-30T07:03:38.580Z,14.47
2019-03-30T07:06:33.403Z,15.33
2019-03-30T07:09:08.508Z,15.53
2019-03-30T07:11:51.038Z,15.07
2019-03-30T07:14:43.853Z,15.67
2019-03-30T07:17:19.718Z,15.60
2019-03-30T07:19:59.919Z,15.17
2019-03-30T07:22:40.051Z,16.03
2019-03-30T07:25:19.878Z,16.07
2019-03-30T07:28:15.339Z,15.77
2019-03-30T07:30:48.732Z,14.60
2019-03-30T07:33:45.901Z,15.20
2019-03-30T07:36:23.495Z,15.63
2019-03-30T07:39:06.726Z,16.70
2019-03-30T07:41:38.664Z,15.30
2019-03-30T07:44:22.253Z,14.70
2019-03-30T07:47:08.386Z,16.00
2019-03-30T07:49:39.437Z,14.13
2019-03-30T07:52:14.018Z,14.60
2019-03-30T07:54:45.065Z,13.17
2019-03-30T07:57:24.084Z,12.93
2019-03-30T07:59:58.526Z,13.33
2019-03-30T08:02:55.246Z,12.63
2019-03-30T08:05:26.460Z,14.23
2019-03-30T08:07:57.911Z,12.67
2019-03-30T08:10:28.978Z,13.03
2019-03-30T08:13:00.024Z,12.07
2019-03-30T08:15:30.998Z,11.80
2019-03-30T08:18:06.603Z,12.13
2019-03-30T08:20:37.587Z,12.13
2019-03-30T08:23:08.817Z,11.93
2019-03-30T08:25:40.447Z,11.67
2019-03-30T08:28:11.851Z,11.87
2019-03-30T08:30:43.062Z,12.33
2019-03-30T08:33:15.853Z,11.83
2019-03-30T08:35:49.190Z,11.13
2019-03-30T08:38:20.324Z,12.23
2019-03-30T08:41:10.640Z,11.90
2019-03-30T08:43:42.851Z,13.97
2019-03-30T08:46:21.621Z,12.07
2019-03-30T08:48:59.806Z,12.77
2019-03-30T08:51:39.857Z,13.13
2019-03-30T08:54:28.910Z,11.80
2019-03-30T08:57:17.310Z,12.07
2019-03-30T08:59:52.864Z,12.10
2019-03-30T09:02:24.379Z,12.90
2019-03-30T09:05:03.371Z,12.30
2019-03-30T09:07:41.189Z,11.60
2019-03-30T09:10:18.402Z,13.37
2019-03-30T09:12:50.629Z,11.67
2019-03-30T09:15:22.275Z,12.50
2019-03-30T09:18:06.741Z,12.77
2019-03-30T09:20:38.877Z,12.70
2019-03-30T09:23:28.321Z,13.40
2019-03-30T09:26:31.216Z,12.70
2019-03-30T09:29:31.947Z,12.43
2019-03-30T09:32:14.323Z,12.57
2019-03-30T09:34:56.679Z,12.90
2019-03-30T09:37:30.804Z,12.80
2019-03-30T09:40:02.291Z,12.67
2019-03-30T09:42:33.886Z,13.03
2019-03-30T09:45:10.043Z,13.80
2019-03-30T09:47:41.525Z,12.67
2019-03-30T09:50:13.643Z,12.43
2019-03-30T09:52:46.033Z,12.13
2019-03-30T09:55:17.164Z,12.77
2019-03-30T09:57:48.581Z,12.70
2019-03-30T10:00:27.339Z,13.63
2019-03-30T10:02:59.131Z,12.93
2019-03-30T10:05:30.575Z,12.20
2019-03-30T10:08:04.192Z,11.23
2019-03-30T10:10:38.044Z,11.30
2019-03-30T10:13:20.632Z,10.27
2019-03-30T10:16:00.899Z,10.17
2019-03-30T10:18:32.508Z,10.57
2019-03-30T10:21:03.966Z,11.23
2019-03-30T10:23:34.894Z,10.13
2019-03-30T10:26:06.333Z,11.10
2019-03-30T10:28:53.654Z,10.80
2019-03-30T10:31:43.214Z,10.30
2019-03-30T10:34:16.063Z,10.37
2019-03-30T10:36:47.125Z,9.77
2019-03-30T10:39:19.939Z,9.57
2019-03-30T10:41:56.855Z,9.67
2019-03-30T10:44:30.913Z,9.70
2019-03-30T10:47:02.302Z,9.07
2019-03-30T10:49:36.690Z,9.23
2019-03-30T10:52:09.681Z,9.23
2019-03-30T10:54:53.822Z,9.33
2019-03-30T10:57:36.849Z,9.93
2019-03-30T11:00:09.561Z,8.77
2019-03-30T11:02:41.268Z,8.70
2019-03-30T11:05:13.327Z,7.77
2019-03-30T11:07:44.439Z,7.07
2019-03-30T11:10:15.433Z,7.17
2019-03-30T11:12:46.680Z,6.80
2019-03-30T11:15:17.812Z,7.03
2019-03-30T11:17:48.883Z,7.73
2019-03-30T11:20:19.953Z,8.87
2019-03-30T11:22:50.979Z,7.63
2019-03-30T11:25:22.386Z,8.00
2019-03-30T11:27:53.405Z,7.63
2019-03-30T11:30:24.508Z,7.60
2019-03-30T11:32:56.699Z,7.73
2019-03-30T11:35:27.968Z,6.70
2019-03-30T11:38:01.377Z,6.63
2019-03-30T11:40:44.498Z,7.50
2019-03-30T11:43:17.823Z,7.03
2019-03-30T11:45:50.768Z,7.20
2019-03-30T11:48:22.409Z,6.30
2019-03-30T11:50:54.313Z,7.10
2019-03-30T11:53:28.337Z,6.47
2019-03-30T11:55:59.801Z,6.80
2019-03-30T11:58:34.065Z,7.10
2019-03-30T12:01:05.225Z,6.70
2019-03-30T12:04:36.277Z,7.07
2019-03-30T12:07:09.574Z,7.67
2019-03-30T12:09:40.934Z,8.33
2019-03-30T12:12:12.846Z,7.40
2019-03-30T12:14:47.501Z,6.93
2019-03-30T12:17:24.185Z,7.23
2019-03-30T12:19:56.193Z,7.57
2019-03-30T12:22:32.816Z,7.90
2019-03-30T12:25:05.391Z,7.40
2019-03-30T12:27:36.868Z,8.27
2019-03-30T12:30:09.151Z,8.27
2019-03-30T12:32:43.644Z,7.90
2019-03-30T12:35:16.016Z,8.07
2019-03-30T12:37:51.615Z,7.47
2019-03-30T12:40:24.035Z,7.73
2019-03-30T12:42:55.743Z,8.23
2019-03-30T12:45:28.474Z,7.30
2019-03-30T12:48:00.451Z,7.63
2019-03-30T12:50:36.342Z,8.23
2019-03-30T12:53:08.865Z,7.67
2019-03-30T12:55:49.085Z,8.07
2019-03-30T12:58:15.396Z,7.97
2019-03-30T13:00:47.991Z,7.70
2019-03-30T13:03:32.000Z,7.33
2019-03-30T13:06:03.655Z,7.03
2019-03-30T13:08:35.728Z,7.03
2019-03-30T13:11:15.444Z,8.00
2019-03-30T13:13:47.448Z,7.70
2019-03-30T13:16:19.333Z,8.07
2019-03-30T13:18:51.474Z,7.70
2019-03-30T13:21:26.533Z,7.60
2019-03-30T13:23:59.100Z,7.13
2019-03-30T13:26:32.369Z,7.60
2019-03-30T13:29:03.378Z,7.60
2019-03-30T13:31:35.451Z,8.23
2019-03-30T13:34:08.464Z,8.07
2019-03-30T13:36:43.492Z,7.70
2019-03-30T13:39:14.572Z,7.97
2019-03-30T13:41:46.183Z,7.60
2019-03-30T13:44:20.960Z,7.90
2019-03-30T13:46:56.209Z,8.17
2019-03-30T13:49:29.670Z,7.33
2019-03-30T13:52:02.766Z,7.50
2019-03-30T13:54:34.067Z,7.27
2019-03-30T13:57:05.743Z,7.37
2019-03-30T13:59:46.284Z,7.97
2019-03-30T14:02:27.415Z,7.33
2019-03-30T14:04:54.849Z,8.27
2019-03-30T14:07:28.049Z,8.10
2019-03-30T14:10:00.399Z,7.60
2019-03-30T14:12:33.102Z,7.90
2019-03-30T14:15:09.754Z,7.87
2019-03-30T14:17:42.183Z,7.90
2019-03-30T14:20:13.301Z,8.13
2019-03-30T14:22:44.395Z,8.23
2019-03-30T14:25:15.737Z,7.90
2019-03-30T14:27:49.377Z,7.57
2019-03-30T14:30:21.374Z,8.77
2019-03-30T14:32:58.973Z,7.43
2019-03-30T14:35:32.313Z,10.67
2019-03-30T14:38:06.218Z,8.83
2019-03-30T14:40:37.657Z,8.47
2019-03-30T14:43:10.194Z,7.43
2019-03-30T14:45:41.217Z,8.23
2019-03-30T14:48:18.724Z,8.13
2019-03-30T14:50:51.290Z,7.87
2019-03-30T14:53:23.224Z,7.97
2019-03-30T14:55:58.420Z,8.40
2019-03-30T14:58:31.508Z,7.80
2019-03-30T15:01:03.614Z,9.13
2019-03-30T15:03:44.119Z,8.63
2019-03-30T15:06:26.878Z,7.73
2019-03-30T15:08:57.953Z,9.53
2019-03-30T15:11:29.369Z,8.83
2019-03-30T15:14:01.297Z,8.83
2019-03-30T15:16:34.555Z,9.30
2019-03-30T15:19:06.428Z,7.17
2019-03-30T15:21:39.935Z,8.03
2019-03-30T15:24:11.489Z,7.50
2019-03-30T15:26:53.885Z,8.57
2019-03-30T15:29:20.205Z,9.13
2019-03-30T15:31:51.431Z,8.07
2019-03-30T15:34:26.052Z,8.03
2019-03-30T15:37:00.500Z,9.00
2019-03-30T15:39:36.331Z,8.17
2019-03-30T15:42:08.140Z,8.83
2019-03-30T15:44:45.448Z,8.37
2019-03-30T15:47:21.223Z,8.47
2019-03-30T15:49:52.358Z,8.90
2019-03-30T15:52:23.869Z,8.47
2019-03-30T15:54:56.505Z,7.97
2019-03-30T15:57:29.109Z,8.83
2019-03-30T16:00:02.268Z,8.07
2019-03-30T16:02:35.738Z,8.37
2019-03-30T16:05:10.622Z,8.23
2019-03-30T16:07:42.650Z,7.57
2019-03-30T16:10:16.820Z,8.37
2019-03-30T16:12:49.675Z,8.50
2019-03-30T16:15:21.167Z,7.83
2019-03-30T16:17:54.152Z,7.07
2019-03-30T16:20:36.068Z,7.63
2019-03-30T16:23:10.122Z,8.47
2019-03-30T16:25:41.672Z,8.77
2019-03-30T16:28:15.327Z,8.30
2019-03-30T16:30:46.595Z,7.90
2019-03-30T16:33:19.083Z,8.30
2019-03-30T16:35:52.044Z,7.87
2019-03-30T16:38:25.931Z,8.17
2019-03-30T16:40:57.182Z,6.97
2019-03-30T16:43:28.562Z,7.60
2019-03-30T16:46:00.774Z,7.53
2019-03-30T16:48:31.877Z,7.40
2019-03-30T16:51:05.958Z,7.00
2019-03-30T16:53:38.985Z,6.63
2019-03-30T16:56:10.917Z,7.40
2019-03-30T16:58:42.261Z,7.00
2019-03-30T17:01:18.408Z,7.00
2019-03-30T17:03:51.075Z,7.23
2019-03-30T17:06:24.129Z,7.60
2019-03-30T17:09:01.437Z,6.67
2019-03-30T17:14:09.089Z,7.50
2019-03-30T17:16:40.143Z,7.30
2019-03-30T17:19:15.208Z,7.13
2019-03-30T17:22:04.979Z,6.80
2019-03-30T17:24:54.775Z,7.50
2019-03-30T17:27:37.541Z,6.33
2019-03-30T17:30:19.755Z,6.50
2019-03-30T17:32:51.739Z,6.43
2019-03-30T17:35:22.879Z,6.33
2019-03-30T17:38:12.644Z,7.43
2019-03-30T17:40:43.945Z,6.70
2019-03-30T17:43:15.006Z,5.83
2019-03-30T17:46:04.677Z,6.23
2019-03-30T17:48:35.915Z,6.10
2019-03-30T17:51:07.351Z,5.90
2019-03-30T17:59:44.088Z,7.03
2019-03-30T18:02:15.292Z,5.90
2019-03-30T18:05:05.639Z,6.97
2019-03-30T18:08:01.998Z,6.63
2019-03-30T18:10:42.677Z,6.27
2019-03-30T18:13:16.503Z,6.67
2019-03-30T18:15:50.339Z,7.17
2019-03-30T18:18:40.124Z,6.27
2019-03-30T18:21:31.548Z,6.00
2019-03-30T18:24:21.194Z,6.13
2019-03-30T18:26:54.996Z,7.03
2019-03-30T18:32:20.227Z,7.43
2019-03-30T18:35:02.387Z,7.07
2019-03-30T18:37:35.775Z,7.80
2019-03-30T18:40:29.450Z,7.33
2019-03-30T18:43:02.788Z,7.63
2019-03-30T18:45:34.297Z,7.70
2019-03-30T18:48:24.723Z,7.20
2019-03-30T18:51:15.156Z,7.80
2019-03-30T18:56:41.438Z,7.30
2019-03-30T18:59:31.380Z,7.20
2019-03-30T19:02:02.897Z,7.30
2019-03-30T19:04:52.270Z,7.40
2019-03-30T19:08:47.100Z,8.33
2019-03-30T19:11:40.237Z,8.37
2019-03-30T19:14:32.510Z,7.57
2019-03-30T19:17:23.251Z,8.33
2019-03-30T19:19:56.928Z,7.97
2019-03-30T19:22:47.697Z,7.70
2019-03-30T19:25:30.544Z,8.80
2019-03-30T19:28:20.643Z,8.60
2019-03-30T19:30:59.023Z,8.37
2019-03-30T19:33:48.880Z,7.73
2019-03-30T19:36:38.683Z,7.60
2019-03-30T19:39:28.406Z,7.67
2019-03-30T19:42:01.985Z,8.07
2019-03-30T19:44:33.035Z,8.83
2019-03-30T19:47:23.041Z,9.33
2019-03-30T19:49:54.125Z,12.67
2019-03-30T19:52:39.242Z,8.60
2019-03-30T19:54:58.360Z,8.67
2019-03-30T19:57:29.612Z,7.80
2019-03-30T20:00:19.641Z,8.20
2019-03-30T20:03:24.519Z,8.63
2019-03-30T20:09:08.549Z,9.73
2019-03-30T20:11:59.697Z,9.30
2019-03-30T20:14:49.362Z,9.17
2019-03-30T20:17:58.702Z,9.73
2019-03-30T20:20:50.463Z,10.10
2019-03-30T20:23:40.167Z,8.90
2019-03-30T20:26:31.152Z,9.27
2019-03-30T20:29:03.748Z,8.77
2019-03-30T20:31:34.883Z,9.53
2019-03-30T20:34:27.223Z,9.50
2019-03-30T20:37:17.436Z,9.17
2019-03-30T20:40:09.497Z,10.53
2019-03-30T20:43:35.630Z,9.60
2019-03-30T20:46:26.124Z,9.77
2019-03-30T20:52:21.955Z,10.37
2019-03-30T20:54:53.175Z,11.53
2019-03-30T20:57:45.063Z,11.03
2019-03-30T21:00:45.399Z,10.37
2019-03-30T21:03:38.996Z,10.90
2019-03-30T21:06:10.360Z,10.13
2019-03-30T21:09:01.940Z,11.00
2019-03-30T21:11:59.223Z,10.20
2019-03-30T21:14:32.316Z,9.70
2019-03-30T21:17:05.156Z,10.70
2019-03-30T21:20:01.522Z,10.73
2019-03-30T21:22:41.260Z,11.60
2019-03-30T21:25:52.468Z,11.50
2019-03-30T21:28:43.035Z,12.20
2019-03-30T21:31:27.779Z,11.53
2019-03-30T21:34:26.554Z,13.23
2019-03-30T21:37:17.783Z,11.53
2019-03-30T21:40:01.600Z,11.70
2019-03-30T21:45:14.886Z,12.60
2019-03-30T21:48:08.846Z,12.53
2019-03-30T21:51:02.798Z,12.23
2019-03-30T21:53:53.693Z,11.90
2019-03-30T21:56:26.852Z,11.40
2019-03-30T21:59:19.932Z,12.07
2019-03-30T22:02:10.208Z,12.57
2019-03-30T22:05:20.938Z,11.97
2019-03-30T22:11:48.208Z,12.40
2019-03-30T22:14:20.279Z,12.10
2019-03-30T22:17:10.557Z,12.60
2019-03-30T22:20:01.077Z,12.77
2019-03-30T22:22:52.031Z,12.80
2019-03-30T22:25:30.762Z,11.53
2019-03-30T22:28:26.704Z,12.27
2019-03-30T22:31:08.739Z,11.83
2019-03-30T22:34:20.851Z,11.90
2019-03-30T22:36:57.431Z,12.27
2019-03-30T22:39:29.982Z,12.30
2019-03-30T22:42:22.789Z,11.87
2019-03-30T22:45:01.570Z,12.60
2019-03-30T22:47:54.432Z,13.27
2019-03-30T22:50:26.069Z,13.30
2019-03-30T22:56:28.699Z,13.60
2019-03-30T22:59:18.466Z,12.83
2019-03-30T23:01:53.929Z,13.43
2019-03-30T23:04:44.749Z,13.10
2019-03-30T23:07:18.205Z,12.97
2019-03-30T23:10:08.440Z,12.33
2019-03-30T23:13:05.693Z,12.90
2019-03-30T23:15:55.438Z,12.00
2019-03-30T23:18:26.677Z,11.03
2019-03-30T23:21:17.529Z,11.97
2019-03-30T23:23:50.984Z,12.07
2019-03-30T23:26:23.919Z,11.07
2019-03-30T23:28:55.410Z,11.77
2019-03-30T23:34:08.705Z,11.53
2019-03-30T23:36:39.917Z,11.30
2019-03-30T23:39:29.629Z,10.37
2019-03-30T23:42:00.985Z,11.57
2019-03-30T23:44:31.999Z,10.90
2019-03-30T23:47:21.819Z,12.13
2019-03-30T23:49:53.971Z,11.47
2019-03-30T23:52:43.890Z,10.17
2019-03-30T23:55:15.131Z,11.20
2019-03-30T23:58:09.652Z,10.60
